Time;durP1;ratioP1;P1;durP2;ratioP2;P2;SDS_P1;SDS_P2;PMS_P1;PMS_P2;Temp;Humidity;BMP_temperature;BMP_pressure;BME280_temperature;BME280_humidity;BME280_pressure;Samples;Min_cycle;Max_cycle;Signal;HPM_P1;HPM_P2
2023/06/18 00:02:01;;;;;;;;;;;;;;;21.59;100.00;99500.31;5031446;28;19939;-75
2023/06/18 00:04:27;;;;;;;;;;;;;;;21.49;100.00;99496.44;5031610;28;19971;-75
2023/06/18 00:06:54;;;;;;;;;;;;;;;21.28;100.00;99502.94;5031624;28;19975;-75
2023/06/18 00:09:20;;;;;;;6.40;5.80;;;;;;;21.02;100.00;99501.16;5031591;28;20281;-75
2023/06/18 00:11:46;;;;;;;5.78;5.28;;;;;;;20.96;100.00;99506.53;5030592;28;20116;-76
2023/06/18 00:14:11;;;;;;;6.53;5.25;;;;;;;20.91;100.00;99504.47;5030638;28;20108;-75
2023/06/18 00:16:37;;;;;;;6.75;5.78;;;;;;;20.96;100.00;99503.84;5030517;28;20069;-76
2023/06/18 00:19:02;;;;;;;6.57;5.38;;;;;;;20.93;100.00;99506.94;5031110;28;20036;-75
2023/06/18 00:21:32;;;;;;;6.72;6.00;;;;;;;20.98;100.00;99510.63;5030451;28;20060;-75
2023/06/18 00:23:58;;;;;;;6.50;5.97;;;;;;;20.98;100.00;99509.81;5031282;28;20026;-75
2023/06/18 00:26:25;;;;;;;6.70;6.07;;;;;;;20.94;100.00;99503.22;5030538;28;20323;-75
2023/06/18 00:28:52;;;;;;;7.25;5.82;;;;;;;20.90;100.00;99507.38;5030433;28;20047;-75
2023/06/18 00:31:19;;;;;;;6.43;5.90;;;;;;;20.88;100.00;99506.75;5030563;28;20025;-74
2023/06/18 00:33:45;;;;;;;6.05;5.47;;;;;;;20.78;100.00;99505.34;5030324;28;20477;-74
2023/06/18 00:36:12;;;;;;;6.30;5.78;;;;;;;20.82;100.00;99506.56;5030739;28;20075;-76
2023/06/18 00:38:43;;;;;;;6.45;5.85;;;;;;;20.80;100.00;99513.16;5030455;28;20390;-75
2023/06/18 00:41:09;;;;;;;;;;;;;;;20.75;100.00;99508.44;5031361;28;20262;-75
2023/06/18 00:43:36;;;;;;;;;;;;;;;20.76;100.00;99520.81;5030071;28;20285;-74
2023/06/18 00:46:02;;;;;;;;;;;;;;;20.77;100.00;99517.09;5005632;28;19937;-75
2023/06/18 00:48:31;;;;;;;;;;;;;;;20.74;100.00;99524.72;5010997;28;19931;-76
2023/06/18 00:50:57;;;;;;;;;;;;;;;20.73;100.00;99513.19;5005841;28;19936;-77
2023/06/18 00:53:25;;;;;;;;;;;;;;;20.78;100.00;99526.81;5011090;28;19921;-75
2023/06/18 00:55:51;;;;;;;;;;;;;;;20.83;100.00;99531.53;5011115;28;20032;-75
2023/06/18 00:58:17;;;;;;;;;;;;;;;20.80;100.00;99524.72;5008781;28;19925;-75
2023/06/18 01:00:43;;;;;;;;;;;;;;;20.77;100.00;99530.50;5008674;28;19986;-75
2023/06/18 01:03:15;;;;;;;;;;;;;;;20.76;100.00;99528.84;5010560;28;19932;-76
2023/06/18 01:05:49;;;;;;;;;;;;;;;20.71;100.00;99531.34;5011888;28;19921;-76
2023/06/18 01:08:15;;;;;;;;;;;;;;;20.48;100.00;99517.56;5013626;28;20008;-75
2023/06/18 01:10:41;;;;;;;;;;;;;;;20.38;100.00;99525.19;5013449;28;19949;-76
2023/06/18 01:13:10;;;;;;;;;;;;;;;20.27;100.00;99523.06;5012915;28;19928;-76
2023/06/18 01:15:36;;;;;;;;;;;;;;;20.28;100.00;99530.09;5013320;28;19976;-76
2023/06/18 01:18:06;;;;;;;;;;;;;;;20.25;100.00;99525.97;5011207;28;20317;-75
2023/06/18 01:20:40;;;;;;;;;;;;;;;20.31;100.00;99518.97;5012363;28;19928;-76
2023/06/18 01:23:35;;;;;;;;;;;;;;;20.30;100.00;99528.03;5024210;28;19980;-75
2023/06/18 01:26:01;;;;;;;;;;;;;;;20.29;100.00;99526.38;4961733;28;19969;-75
2023/06/18 01:28:30;;;;;;;;;;;;;;;20.29;100.00;99526.38;5014496;28;19924;-76
2023/06/18 01:30:56;;;;;;;;;;;;;;;20.24;100.00;99524.31;5013069;28;19929;-75
2023/06/18 01:33:21;;;;;;;;;;;;;;;20.21;100.00;99521.22;5014577;28;19940;-75
2023/06/18 01:35:47;;;;;;;;;;;;;;;20.20;100.00;99519.59;5013170;28;19925;-76
2023/06/18 01:38:24;;;;;;;;;;;;;;;20.19;100.00;99520.63;5014703;28;21736;-75
2023/06/18 01:40:54;;;;;;;;;;;;;;;20.20;100.00;99533.00;5015518;28;19922;-76
2023/06/18 01:43:23;;;;;;;;;;;;;;;20.11;100.00;99523.47;5013264;28;19921;-75
2023/06/18 01:46:01;;;;;;;;;;;;;;;20.14;100.00;99523.09;5021116;28;20027;-76
2023/06/18 01:48:28;;;;;;;;;;;;;;;20.09;100.00;99528.25;5037286;28;20349;-76
2023/06/18 01:50:55;;;;;;;;;;;;;;;20.07;100.00;99528.44;5015664;28;19965;-73
2023/06/18 01:53:23;;;;;;;;;;;;;;;20.02;100.00;99531.72;5037068;28;19990;-74
2023/06/18 01:55:51;;;;;;;;;;;;;;;20.00;100.00;99533.78;5037802;28;19927;-73
2023/06/18 01:58:17;;;;;;;;;;;;;;;19.98;100.00;99541.19;5037643;28;19924;-72
2023/06/18 02:00:42;;;;;;;;;;;;;;;20.01;100.00;99540.78;5018167;28;20398;-75
2023/06/18 02:03:08;;;;;;;;;;;;;;;19.98;100.00;99549.22;5036488;28;19921;-74
2023/06/18 02:05:34;;;;;;;;;;;;;;;19.95;100.00;99552.31;5035453;28;19925;-76
2023/06/18 02:07:59;;;;;;;;;;;;;;;20.01;100.00;99545.31;5018105;28;19921;-75
2023/06/18 02:10:25;;;;;;;;;;;;;;;20.02;100.00;99544.31;5036159;28;19940;-75
2023/06/18 02:12:50;;;;;;;;;;;;;;;19.99;100.00;99550.06;5035492;28;19937;-75
2023/06/18 02:15:16;;;;;;;;;;;;;;;19.98;100.00;99551.91;5030796;28;19968;-75
2023/06/18 02:17:42;;;;;;;;;;;;;;;19.99;100.00;99558.91;5018397;28;19928;-75
2023/06/18 02:20:09;;;;;;;;;;;;;;;20.01;100.00;99556.88;5036687;28;20000;-75
2023/06/18 02:22:34;;;;;;;;;;;;;;;19.96;100.00;99559.34;5018017;28;19932;-75
2023/06/18 02:25:01;;;;;;;;;;;;;;;19.87;100.00;99555.16;5036926;28;19921;-75
2023/06/18 02:27:26;;;;;;;;;;;;;;;19.80;100.00;99561.53;5018471;28;20011;-75
2023/06/18 02:29:52;;;;;;;;;;;;;;;19.84;100.00;99560.13;5036159;28;20352;-74
2023/06/18 02:32:17;;;;;;;;;;;;;;;19.84;100.00;99560.94;5018309;28;19962;-75
2023/06/18 02:34:43;;;;;;;;;;;;;;;19.79;100.00;99552.66;5035664;28;19929;-75
2023/06/18 02:37:09;;;;;;;;;;;;;;;19.78;100.00;99561.75;5016459;28;19921;-75
2023/06/18 02:39:36;;;;;;;;;;;;;;;19.71;100.00;99558.22;5015560;28;19921;-75
2023/06/18 02:42:01;;;;;;;;;;;;;;;19.65;100.00;99561.72;5029471;28;19979;-76
2023/06/18 02:44:31;;;;;;;;;;;;;;;19.50;100.00;99563.69;5015230;28;19921;-75
2023/06/18 02:46:57;;;;;;;;;;;;;;;19.50;100.00;99555.66;5014417;28;19975;-75
2023/06/18 02:49:23;;;;;;;;;;;;;;;19.49;100.00;99556.72;5014360;28;19977;-75
2023/06/18 02:51:48;;;;;;;;;;;;;;;19.53;100.00;99552.59;5014417;28;20309;-74
2023/06/18 02:54:14;;;;;;;;;;;;;;;19.54;100.00;99552.41;5032755;28;19921;-75
2023/06/18 02:56:40;;;;;;;;;;;;;;;19.49;100.00;99546.00;5032010;28;19921;-75
2023/06/18 02:59:05;;;;;;;;;;;;;;;19.48;100.00;99544.34;5014837;28;19960;-74
2023/06/18 03:01:31;;;;;;;;;;;;;;;19.53;100.00;99548.06;5014724;28;20404;-76
2023/06/18 03:03:58;;;;;;;;;;;;;;;19.57;100.00;99540.47;5010450;28;19928;-76
2023/06/18 03:06:27;;;;;;;;;;;;;;;19.62;100.00;99529.97;5014766;28;19921;-75
2023/06/18 03:08:53;;;;;;;;;;;;;;;19.63;100.00;99539.66;5034062;28;19986;-76
2023/06/18 03:11:19;;;;;;;;;;;;;;;19.64;100.00;99541.31;5016129;28;19925;-76
2023/06/18 03:13:44;;;;;;;;;;;;;;;19.62;100.00;99543.34;5023535;28;19921;-75
2023/06/18 03:16:10;;;;;;;;;;;;;;;19.66;100.00;99541.13;5014233;28;19922;-76
2023/06/18 03:18:37;;;;;;;;;;;;;;;19.70;100.00;99542.34;5009888;28;19921;-75
2023/06/18 03:21:03;;;;;;;;;;;;;;;19.73;100.00;99548.16;5010386;28;19921;-75
2023/06/18 03:23:28;;;;;;;;;;;;;;;19.72;100.00;99545.66;5031595;28;20292;-76
2023/06/18 03:25:53;;;;;;;;;;;;;;;19.59;100.00;99549.13;5032101;28;19929;-75
2023/06/18 03:28:24;;;;;;;;;;;;;;;19.52;100.00;99556.31;5022581;28;20372;-74
2023/06/18 03:30:50;;;;;;;;;;;;;;;19.52;100.00;99550.94;5013983;28;19968;-74
2023/06/18 03:33:17;;;;;;;;;;;;;;;19.43;100.00;99546.78;5031974;28;19970;-74
2023/06/18 03:35:46;;;;;;;;;;;;;;;19.35;100.00;99561.16;5031455;28;19925;-75
2023/06/18 03:38:13;;;;;;;;;;;;;;;19.28;100.00;99554.09;5031750;28;19920;-74
2023/06/18 03:40:39;;;;;;;;;;;;;;;19.30;100.00;99557.41;5013903;28;20316;-74
2023/06/18 03:43:05;;;;;;;;;;;;;;;19.29;100.00;99555.75;5031876;28;19921;-74
2023/06/18 03:45:30;;;;;;;;;;;;;;;19.28;100.00;99556.78;5013537;28;19929;-73
2023/06/18 03:47:56;;;;;;;;;;;;;;;19.22;100.00;99567.25;5015615;23;20468;-80
2023/06/18 03:50:24;;;;;;;;;;;;;;;19.17;100.00;99569.69;4983785;28;20274;-81
2023/06/18 03:52:50;;;;;;;;;;;;;;;19.14;100.00;99567.41;4985488;28;19944;-82
2023/06/18 03:55:16;;;;;;;;;;;;;;;19.10;100.00;99568.81;4986937;28;20384;-82
2023/06/18 03:57:56;;;;;;;;;;;;;;;19.03;100.00;99577.81;4984704;28;19968;-81
2023/06/18 04:00:21;;;;;;;;;;;;;;;18.90;100.00;99583.94;4989456;28;19929;-81
2023/06/18 04:02:47;;;;;;;8.52;7.55;;;;;;;18.64;100.00;99583.75;4985713;28;19925;-81
2023/06/18 04:05:17;;;;;;;8.45;7.63;;;;;;;18.51;100.00;99599.63;4985124;28;20053;-81
2023/06/18 04:07:43;;;;;;;7.40;6.78;;;;;;;18.49;100.00;99601.69;4987178;28;20494;-79
2023/06/18 04:10:09;;;;;;;7.93;7.32;;;;;;;18.30;100.00;99598.63;4983501;28;20057;-80
2023/06/18 04:12:34;;;;;;;7.97;7.00;;;;;;;18.23;100.00;99605.75;4989551;28;20397;-80
2023/06/18 04:15:01;;;;;;;7.47;6.85;;;;;;;18.22;100.00;99606.75;4999321;28;20033;-80
2023/06/18 04:17:28;;;;;;;8.73;6.78;;;;;;;18.27;100.00;99609.69;4987819;28;20045;-81
2023/06/18 04:19:54;;;;;;;9.70;6.93;;;;;;;18.31;100.00;99608.31;4985625;28;20046;-81
2023/06/18 04:22:20;;;;;;;7.80;6.85;;;;;;;18.34;100.00;99605.25;4990302;28;20042;-80
2023/06/18 04:24:46;;;;;;;7.97;7.20;;;;;;;18.38;100.00;99611.00;4984992;28;20728;-80
2023/06/18 04:27:12;;;;;;;8.50;7.68;;;;;;;18.48;100.00;99600.84;4989441;28;20034;-79
2023/06/18 04:29:37;;;;;;;10.95;7.57;;;;;;;18.54;100.00;99591.22;4985538;28;20034;-80
2023/06/18 04:32:03;;;;;;;7.97;7.28;;;;;;;18.60;100.00;99603.84;4990431;28;20050;-81
2023/06/18 04:34:29;;;;;;;9.05;7.72;;;;;;;18.70;100.00;99601.66;4984260;28;20038;-80
2023/06/18 04:36:55;;;;;;;7.43;6.65;;;;;;;18.79;100.00;99597.84;4985336;28;20037;-81
2023/06/18 04:39:20;;;;;;;8.23;7.47;;;;;;;18.84;100.00;99595.41;4986429;28;20053;-81
2023/06/18 04:41:46;;;;;;;10.65;7.78;;;;;;;18.81;100.00;99595.78;4988357;28;20069;-80
2023/06/18 04:44:13;;;;;;;8.45;7.65;;;;;;;18.84;100.00;99595.41;4987086;28;20141;-81
2023/06/18 04:46:40;;;;;;;7.43;6.82;;;;;;;18.85;100.00;99604.25;4986632;28;20394;-81
2023/06/18 04:49:06;;;;;;;8.43;7.63;;;;;;;18.93;100.00;99599.59;4982714;28;20046;-81
2023/06/18 04:51:31;;;;;;;7.78;7.07;;;;;;;18.98;100.00;99591.78;4989519;28;20070;-81
2023/06/18 04:53:57;;;;;;;8.30;7.05;;;;;;;18.99;100.00;99603.31;4982957;28;20029;-80
2023/06/18 04:56:22;;;;;;;8.52;7.75;;;;;;;19.04;100.00;99600.88;4986374;28;20074;-80
2023/06/18 04:58:48;;;;;;;10.07;7.85;;;;;;;19.07;100.00;99609.34;5001862;28;20533;-81
2023/06/18 05:01:14;;;;;;;10.38;7.25;;;;;;;19.15;100.00;99624.41;4986722;28;20363;-79
2023/06/18 05:03:41;;;;;;;8.32;7.47;;;;;;;19.15;100.00;99613.69;4984733;28;20305;-79
2023/06/18 05:06:07;;;;;;;8.02;7.38;;;;;;;19.14;100.00;99618.22;4986826;28;20126;-79
2023/06/18 05:08:34;;;;;;;7.85;6.97;;;;;;;19.01;100.00;99618.16;4978153;28;20487;-80
2023/06/18 05:11:00;;;;;;;8.45;7.65;;;;;;;19.06;100.00;99621.06;4985572;28;20131;-79
2023/06/18 05:13:27;;;;;;;8.55;7.70;;;;;;;19.09;100.00;99609.97;4985006;28;20090;-79
2023/06/18 05:15:53;;;;;;;7.45;6.85;;;;;;;19.15;100.00;99608.34;4984558;28;20410;-79
2023/06/18 05:18:19;;;;;;;7.85;7.10;;;;;;;19.26;100.00;99620.38;5000581;28;20034;-79
2023/06/18 05:20:44;;;;;;;9.02;7.18;;;;;;;19.35;100.00;99629.88;4985977;28;20532;-79
2023/06/18 05:23:11;;;;;;;10.15;7.72;;;;;;;19.45;100.00;99627.66;4985661;28;20031;-79
2023/06/18 05:25:38;;;;;;;8.13;7.32;;;;;;;19.52;100.00;99626.72;4986720;28;20482;-81
2023/06/18 05:28:04;;;;;;;9.02;7.75;;;;;;;19.59;100.00;99616.88;4978789;28;20041;-82
2023/06/18 05:30:33;;;;;;;8.20;7.50;;;;;;;19.64;100.00;99632.31;4998078;28;20108;-83
2023/06/18 05:32:59;;;;;;;10.50;7.55;;;;;;;19.64;100.00;99635.00;4982707;28;20400;-82
2023/06/18 05:35:25;;;;;;;8.65;7.85;;;;;;;19.68;100.00;99630.91;4985259;28;20125;-81
2023/06/18 05:37:55;;;;;;;8.17;7.40;;;;;;;19.73;100.00;99633.81;4983902;28;20042;-81
2023/06/18 05:40:20;;;;;;;8.15;7.40;;;;;;;19.79;100.00;99633.00;4988374;28;20053;-81
2023/06/18 05:42:46;;;;;;;8.88;8.10;;;;;;;19.87;100.00;99635.50;4988902;28;20050;-81
2023/06/18 05:45:12;;;;;;;9.32;8.43;;;;;;;19.93;100.00;99645.44;4990243;28;20031;-81
2023/06/18 05:47:39;;;;;;;8.80;7.93;;;;;;;20.00;100.00;99643.59;4981306;28;20039;-82
2023/06/18 05:50:11;;;;;;;9.10;7.80;;;;;;;20.07;100.00;99646.31;5061213;23;20042;-81
2023/06/18 05:52:37;;;;;;;7.93;7.18;;;;;;;20.18;100.00;99644.88;5009029;28;20528;-79
2023/06/18 05:55:03;;;;;;;8.15;7.45;;;;;;;20.28;100.00;99653.34;5021505;28;20036;-81
2023/06/18 05:57:28;;;;;;;8.65;7.72;;;;;;;20.39;100.00;99658.16;5022910;28;20040;-81
2023/06/18 05:59:54;;;;;;;8.82;8.13;;;;;;;20.51;100.00;99658.38;5018485;28;20048;-80
2023/06/18 06:02:20;;;;;;;8.15;7.45;;;;;;;20.62;100.00;99666.63;5017096;28;20100;-80
2023/06/18 06:04:45;;;;;;;10.05;8.32;;;;;;;20.73;100.00;99665.22;5016561;28;20512;-80
2023/06/18 06:07:11;;;;;;;8.00;7.30;;;;;;;20.84;100.00;99665.44;5000919;28;20033;-81
2023/06/18 06:09:37;;;;;;;7.53;6.93;;;;;;;20.96;100.00;99667.50;5022627;28;20034;-80
2023/06/18 06:12:03;;;;;;;9.20;7.57;;;;;;;21.07;100.00;99677.59;5017611;28;20578;-80
2023/06/18 06:14:28;;;;;;;8.02;7.32;;;;;;;21.14;100.00;99676.56;5022613;28;20108;-80
2023/06/18 06:16:57;;;;;;;9.18;8.27;;;;;;;21.24;100.00;99670.78;5029326;28;20068;-79
2023/06/18 06:19:24;;;;;;;7.95;7.25;;;;;;;21.35;100.00;99677.38;5020496;28;20030;-80
2023/06/18 06:21:50;;;;;;;9.55;8.35;;;;;;;21.42;100.00;99676.34;5015141;28;20084;-80
2023/06/18 06:24:15;;;;;;;9.52;8.48;;;;;;;21.42;100.00;99679.03;5017622;28;20030;-81
2023/06/18 06:26:41;;;;;;;9.45;8.43;;;;;;;21.41;100.00;99681.91;5028505;28;20033;-81
2023/06/18 06:29:07;;;;;;;8.95;8.07;;;;;;;21.42;100.00;99684.41;5033008;28;20049;-81
2023/06/18 06:31:33;;;;;;;8.63;7.70;;;;;;;21.48;100.00;99688.94;5025528;28;20481;-80
2023/06/18 06:33:59;;;;;;;8.60;7.20;;;;;;;21.58;100.00;99680.41;5025871;28;20084;-81
2023/06/18 06:36:25;;;;;;;8.88;8.18;;;;;;;21.67;100.00;99686.41;5021726;28;20041;-81
2023/06/18 06:38:52;;;;;;;8.70;8.00;;;;;;;21.72;100.00;99689.28;5020951;28;20083;-82
2023/06/18 06:41:18;;;;;;;8.90;8.18;;;;;;;21.75;100.00;99686.97;5020467;28;20029;-82
2023/06/18 06:43:43;;;;;;;9.13;8.00;;;;;;;21.75;100.00;99694.22;5029064;28;20405;-82
2023/06/18 06:46:29;;;;;;;;;;;;;;;21.81;100.00;99704.09;4993477;28;20513;-83
2023/06/18 06:49:19;;;;;;;;;;;;;;;21.87;100.00;99697.88;5028270;28;19953;-84
2023/06/18 06:51:53;;;;;;;;;;;;;;;21.91;100.00;99696.44;5028888;28;19921;-83
2023/06/18 06:54:19;;;;;;;;;;;;;;;21.99;100.00;99694.38;5024286;28;19921;-84
2023/06/18 06:56:44;;;;;;;;;;;;;;;22.06;100.00;99691.66;5024391;28;20003;-85
2023/06/18 06:59:10;;;;;;;;;;;;;;;22.12;100.00;99696.16;5023495;28;19944;-84
2023/06/18 07:01:36;;;;;;;;;;;;;;;22.17;100.00;99703.59;5033774;28;19995;-84
2023/06/18 07:04:03;;;;;;;;;;;;;;;22.23;100.00;99703.56;5018313;28;19917;-86
2023/06/18 07:06:28;;;;;;;;;;;;;;;22.27;100.00;99702.09;5029469;28;19956;-88
2023/06/18 07:08:54;;;;;;;;;;;;;;;22.31;100.00;99700.63;5022548;28;20006;-84
2023/06/18 07:11:20;;;;;;;;;;;;;;;22.34;100.00;99700.19;5032096;28;19916;-84
2023/06/18 07:13:45;;;;;;;;;;;;;;;22.38;100.00;99701.41;5017594;28;20027;-84
2023/06/18 07:16:11;;;;;;;;;;;;;;;22.48;100.00;99697.44;5029741;28;20004;-84
2023/06/18 07:18:36;;;;;;;;;;;;;;;22.52;100.00;99695.94;5030323;28;19985;-80
2023/06/18 07:21:01;;;;;;;;;;;;;;;22.58;100.00;99695.09;5030400;28;19917;-85
2023/06/18 07:23:27;;;;;;;;;;;;;;;22.67;100.00;99700.00;5028875;28;19925;-81
2023/06/18 07:25:52;;;;;;;;;;;;;;;22.77;100.00;99699.53;5034053;28;20403;-87
2023/06/18 07:28:18;;;;;;;;;;;;;;;22.85;100.00;99696.59;5031079;28;19920;-87
2023/06/18 07:30:43;;;;;;;;;;;;;;;22.95;100.00;99690.72;5034792;28;19920;-87
2023/06/18 07:33:08;;;;;;;;;;;;;;;23.03;100.00;99699.31;5035082;28;20020;-84
2023/06/18 07:35:34;;;;;;;;;;;;;;;23.11;100.00;99696.38;5033363;28;19956;-80
2023/06/18 07:37:59;;;;;;;;;;;;;;;23.19;100.00;99692.59;5021848;28;19928;-85
2023/06/18 07:40:25;;;;;;;;;;;;;;;23.27;100.00;99690.41;5013176;28;20313;-85
2023/06/18 07:42:51;;;;;;;;;;;;;;;23.28;100.00;99691.25;5028898;28;20126;-85
2023/06/18 07:45:16;;;;;;;;;;;;;;;23.36;100.00;99692.84;5032619;28;20032;-83
2023/06/18 07:47:42;;;;;;;;;;;;;;;23.45;100.00;99686.09;5029974;28;19924;-80
2023/06/18 07:50:08;;;;;;;;;;;;;;;23.52;100.00;99689.59;5029978;28;19917;-83
2023/06/18 07:52:34;;;;;;;;;;;;;;;23.63;100.00;99683.44;5029535;28;20265;-84
2023/06/18 07:54:59;;;;;;;;;;;;;;;23.71;100.00;99675.09;5026012;28;19931;-86
2023/06/18 07:57:25;;;;;;;;;;;;;;;23.80;100.00;99671.03;5019890;28;20292;-84
2023/06/18 07:59:50;;;;;;;;;;;;;;;23.78;100.00;99665.06;5031355;28;19921;-83
2023/06/18 08:02:15;;;;;;;;;;;;;;;23.83;100.00;99667.91;5035159;28;19917;-86
2023/06/18 08:04:41;;;;;;;;;;;;;;;23.91;100.00;99666.78;5034413;28;19921;-88
2023/06/18 08:07:06;;;;;;;;;;;;;;;23.97;100.00;99664.00;5029399;28;19917;-84
2023/06/18 08:09:31;;;;;;;;;;;;;;;24.01;100.00;99667.88;5031900;28;19917;-89
2023/06/18 08:11:57;;;;;;;;;;;;;;;24.04;100.00;99670.09;5016865;28;19925;-80
2023/06/18 08:14:22;;;;;;;;;;;;;;;24.06;100.00;99678.78;5032053;28;20384;-80
2023/06/18 08:16:48;;;;;;;;;;;;;;;24.07;100.00;99674.22;5028832;28;19921;-87
2023/06/18 08:19:13;;;;;;;;;;;;;;;24.11;100.00;99675.41;5028323;28;19917;-81
2023/06/18 08:21:38;;;;;;;;;;;;;;;24.13;100.00;99676.03;5031595;28;19921;-81
2023/06/18 08:24:04;;;;;;;;;;;;;;;24.20;100.00;99676.78;5028000;28;19924;-81
2023/06/18 08:26:29;;;;;;;;;;;;;;;24.29;100.00;99677.28;5031672;28;19917;-82
2023/06/18 08:28:55;;;;;;;;;;;;;;;24.38;100.00;99676.75;5026195;28;19952;-82
2023/06/18 08:31:20;;;;;;;;;;;;;;;24.45;100.00;99672.06;5019925;28;20345;-80
2023/06/18 08:33:46;;;;;;;;;;;;;;;24.50;100.00;99679.47;5026674;28;19999;-81
2023/06/18 08:36:11;;;;;;;;;;;;;;;24.51;100.00;99685.69;5019672;28;19971;-82
2023/06/18 08:38:37;;;;;;;;;;;;;;;24.62;100.00;99680.34;5029474;28;20356;-80
2023/06/18 08:41:02;;;;;;;;;;;;;;;24.73;100.00;99684.13;5026242;28;19940;-81
2023/06/18 08:43:32;;;;;;;;;;;;;;;24.80;100.00;99684.81;5023143;28;19917;-82
2023/06/18 08:46:10;;;;;;;;;;;;;;;24.80;100.00;99674.84;5025230;28;20300;-82
2023/06/18 08:48:42;;;;;;;;;;;;;;;24.76;100.00;99675.53;5025687;28;20186;-82
2023/06/18 08:51:09;;;;;;;;;;;;;;;24.80;100.00;99677.53;5023739;28;19967;-80
2023/06/18 08:53:39;;;;;;;;;;;;;;;24.89;100.00;99680.78;5027633;28;19917;-81
2023/06/18 08:56:05;;;;;;;;;;;;;;;24.99;100.00;99680.19;5026157;28;19927;-84
2023/06/18 08:58:33;;;;;;;;;;;;;;;25.13;100.00;99681.63;5030391;28;20324;-81
2023/06/18 09:01:00;;;;;;;;;;;;;;;25.27;100.00;99681.13;5018824;28;19917;-80
2023/06/18 09:03:26;;;;;;;;;;;;;;;25.41;100.00;99687.13;5029474;28;20419;-83
2023/06/18 09:05:51;;;;;;;;;;;;;;;25.50;100.00;99691.13;5027325;28;19917;-82
2023/06/18 09:08:17;;;;;;;;;;;;;;;25.61;100.00;99687.63;5026987;28;20365;-82
2023/06/18 09:10:42;;;;;;;;;;;;;;;25.73;100.00;99686.78;5029881;28;19925;-81
2023/06/18 09:13:08;;;;;;;;;;;;;;;25.84;100.00;99696.75;5032139;28;20007;-81
2023/06/18 09:15:33;;;;;;;;;;;;;;;25.93;100.00;99689.88;5028149;28;19924;-80
2023/06/18 09:17:58;;;;;;;;;;;;;;;25.98;100.00;99684.59;5030521;28;19917;-80
2023/06/18 09:20:26;;;;;;;;;;;;;;;25.92;100.00;99682.88;5035906;28;19917;-82
2023/06/18 09:22:51;;;;;;;;;;;;;;;25.94;100.00;99686.97;5035997;28;19963;-81
2023/06/18 09:25:17;;;;;;;;;;;;;;;25.92;100.00;99689.06;5031765;28;19917;-82
2023/06/18 09:27:44;;;;;;;;;;;;;;;25.82;100.00;99682.63;5028934;28;19917;-82
2023/06/18 09:30:17;;;;;;;;;;;;;;;25.89;100.00;99681.44;5033071;28;20011;-81
2023/06/18 09:32:47;;;;;;;;;;;;;;;26.02;100.00;99677.66;5027314;28;19924;-81
2023/06/18 09:35:13;;;;;;;;;;;;;;;26.14;100.00;99681.16;5031658;28;19917;-82
2023/06/18 09:37:39;;;;;;;;;;;;;;;26.17;100.00;99685.22;5034708;28;19917;-80
2023/06/18 09:40:30;;;;;;;;;;;;;;;26.24;100.00;99686.78;5030492;28;19924;-82
2023/06/18 09:43:00;;;;;;;;;;;;;;;26.28;100.00;99682.50;5030141;28;19917;-82
2023/06/18 09:45:26;;;;;;;;;;;;;;;26.29;100.00;99676.03;5029630;28;19917;-79
2023/06/18 09:47:52;;;;;;;;;;;;;;;26.37;100.00;99685.66;5024896;28;20479;-78
2023/06/18 09:50:17;;;;;;;;;;;;;;;26.39;100.00;99676.22;5027770;28;19917;-77
2023/06/18 09:52:49;;;;;;;;;;;;;;;26.53;100.00;99681.34;5022345;28;19920;-77
2023/06/18 09:55:29;;;;;;;;;;;;;;;26.57;100.00;99669.00;5021568;28;19924;-79
2023/06/18 09:57:54;;;;;;;;;;;;;;;26.63;100.00;99674.22;5028888;28;19917;-79
2023/06/18 10:00:20;;;;;;;;;;;;;;;26.68;100.00;99682.44;5026452;28;20011;-78
2023/06/18 10:02:45;;;;;;;;;;;;;;;26.74;100.00;99680.66;5032627;28;19920;-78
2023/06/18 10:05:11;;;;;;;;;;;;;;;26.76;100.00;99681.22;5034008;28;20648;-78
2023/06/18 10:07:40;;;;;;;;;;;;;;;26.76;100.00;99676.63;5034119;28;19917;-78
2023/06/18 10:10:09;;;;;;;;;;;;;;;26.80;100.00;99674.25;5031977;28;20000;-78
2023/06/18 10:12:35;;;;;;;;;;;;;;;26.74;100.00;99675.25;5030041;28;20020;-78
2023/06/18 10:15:00;;;;;;;;;;;;;;;26.83;100.00;99680.00;5029963;28;19924;-79
2023/06/18 10:17:26;;;;;;;;;;;;;;;26.88;100.00;99682.00;5030371;28;19921;-79
2023/06/18 10:19:58;;;;;;;;;;;;;;;26.95;100.00;99677.25;5033034;28;20397;-78
2023/06/18 10:22:27;;;;;;;;;;;;;;;27.06;100.00;99673.63;5033695;28;20012;-77
2023/06/18 10:25:00;;;;;;;;;;;;;;;27.13;100.00;99673.47;5031558;28;19917;-78
2023/06/18 10:27:27;;;;;;;;;;;;;;;27.01;100.00;99665.41;5032254;28;19917;-78
2023/06/18 10:29:54;;;;;;;;;;;;;;;27.00;100.00;99663.78;5029451;28;19917;-78
2023/06/18 10:32:20;;;;;;;;;;;;;;;27.08;100.00;99659.84;5032503;28;19917;-78
2023/06/18 10:34:46;;;;;;;;;;;;;;;27.22;100.00;99667.34;5033289;28;19955;-78
2023/06/18 10:37:12;;;;;;;;;;;;;;;27.32;99.12;99655.03;5033889;28;20288;-78
2023/06/18 10:39:38;;;;;;;;;;;;;;;27.37;98.59;99649.69;5030228;28;19917;-79
2023/06/18 10:42:14;;;;;;;;;;;;;;;27.41;96.61;99654.34;5030095;28;19971;-79
2023/06/18 10:44:48;;;;;;;;;;;;;;;27.26;95.90;99644.13;5024073;28;19960;-79
2023/06/18 10:47:18;;;;;;;;;;;;;;;27.32;97.19;99644.22;5031615;28;19921;-79
2023/06/18 10:50:03;;;;;;;;;;;;;;;27.42;97.55;99633.50;5030579;28;19924;-78
2023/06/18 10:52:31;;;;;;;;;;;;;;;27.51;99.82;99637.47;5031414;28;20377;-77
2023/06/18 10:55:06;;;;;;;;;;;;;;;27.55;100.00;99638.59;5031226;28;19917;-77
2023/06/18 10:57:34;;;;;;;;;;;;;;;27.38;100.00;99630.47;5024657;28;19943;-79
2023/06/18 11:00:12;;;;;;;;;;;;;;;27.35;100.00;99619.31;5027529;28;19920;-79
2023/06/18 11:02:38;;;;;;;;;;;;;;;27.29;100.00;99630.06;5025079;28;19917;-78
2023/06/18 11:05:05;;;;;;;;;;;;;;;27.29;100.00;99631.97;5025015;28;19928;-78
2023/06/18 11:07:31;;;;;;;;;;;;;;;27.37;100.00;99622.59;5031598;28;20407;-77
2023/06/18 11:09:58;;;;;;;;;;;;;;;27.47;100.00;99626.25;5032250;28;20385;-77
2023/06/18 11:12:27;;;;;;;;;;;;;;;27.51;100.00;99621.22;5023691;28;19917;-77
2023/06/18 11:15:10;;;;;;;;;;;;;;;27.60;100.00;99619.69;5034197;28;19917;-77
2023/06/18 11:17:37;;;;;;;;;;;;;;;27.68;100.00;99613.81;5026664;28;19928;-78
2023/06/18 11:20:04;;;;;;;;;;;;;;;27.79;100.00;99606.63;5027895;28;19935;-78
2023/06/18 11:22:30;;;;;;;;;;;;;;;27.86;100.00;99602.66;5029691;28;19913;-79
2023/06/18 11:24:59;;;;;;;;;;;;;;;27.96;100.00;99594.63;5025740;28;20015;-78
2023/06/18 11:27:25;;;;;;;;;;;;;;;28.02;98.98;99598.22;5030868;28;19971;-78
2023/06/18 11:29:55;;;;;;;;;;;;;;;28.01;98.13;99597.38;5028672;28;19913;-78
2023/06/18 11:32:22;;;;;;;;;;;;;;;28.06;98.15;99594.72;5032128;28;19924;-78
2023/06/18 11:34:48;;;;;;;;;;;;;;;28.11;98.13;99589.34;5028837;28;20284;-78
2023/06/18 11:37:15;;;;;;;;;;;;;;;28.16;98.34;99587.81;5024319;28;19928;-76
2023/06/18 11:39:41;;;;;;;;;;;;;;;28.20;98.55;99591.63;5032522;28;19924;-78
2023/06/18 11:42:18;;;;;;;;;;;;;;;28.17;96.54;99586.72;5023579;28;19928;-77
2023/06/18 11:44:50;;;;;;;;;;;;;;;28.15;97.35;99588.88;5023915;28;19924;-76
2023/06/18 11:47:16;;;;;;;;;;;;;;;28.11;96.66;99578.50;5028987;28;19921;-79
2023/06/18 11:49:45;;;;;;;;;;;;;;;28.21;97.36;99582.44;5030450;28;20329;-79
2023/06/18 11:52:12;;;;;;;;;;;;;;;28.33;96.43;99585.81;5030036;28;19932;-76
2023/06/18 11:54:41;;;;;;;;;;;;;;;28.37;95.41;99576.06;5029826;28;19924;-79
2023/06/18 11:57:10;;;;;;;;;;;;;;;28.45;94.86;99572.88;5028424;28;19960;-79
2023/06/18 11:59:36;;;;;;;;;;;;;;;28.50;94.60;99575.63;5028207;28;20388;-78
2023/06/18 12:02:11;;;;;;;;;;;;;;;28.55;91.45;99578.38;5030140;28;19971;-80
2023/06/18 12:04:37;;;;;;;;;;;;;;;28.61;91.16;99571.91;5028146;28;19921;-79
2023/06/18 12:07:02;;;;;;;;;;;;;;;28.65;91.62;99573.03;5032667;28;19963;-82
2023/06/18 12:09:31;;;;;;;;;;;;;;;28.63;92.42;99568.94;5030621;28;19968;-80
2023/06/18 12:11:59;;;;;;;;;;;;;;;28.57;92.28;99570.00;5031515;28;20415;-82
2023/06/18 12:14:34;;;;;;;;;;;;;;;28.58;92.88;99569.72;5030724;28;19963;-82
2023/06/18 12:17:03;;;;;;;;;;;;;;;28.59;93.55;99567.81;5028776;28;19917;-81